sim
Sign-in with your pilot id or email,
or register
Callsign
Passwort

Schedule Details

Flight Number: OEO7018
Departure: Frankfurt Airport (EDDF) at 11:25
Arrival: Delhi Indira Gandhi International Airport (VIDP) at 18:55

Weather Information
Getting current METAR information for EDDF 271820Z 18009KT 140V200 9999 FEW025 10/06 Q1009 NOSIG
Getting current METAR information for VIDP 271800Z 00000KT 2200 FU NSC 20/14 Q1013 NOSIG

Schedule Frequency

Route Map